createdAt,value
2019-02-02T00:00:32.429Z,46.60
2019-02-02T00:03:03.828Z,45.77
2019-02-02T00:05:35.623Z,44.80
2019-02-02T00:08:07.301Z,46.47
2019-02-02T00:10:38.972Z,48.17
2019-02-02T00:13:10.239Z,44.57
2019-02-02T00:15:41.695Z,52.40
2019-02-02T00:18:13.178Z,47.70
2019-02-02T00:20:44.383Z,50.30
2019-02-02T00:23:15.602Z,44.97
2019-02-02T00:25:46.964Z,49.03
2019-02-02T00:28:18.251Z,57.40
2019-02-02T00:30:49.569Z,46.57
2019-02-02T00:33:20.945Z,50.80
2019-02-02T00:35:52.228Z,48.03
2019-02-02T00:38:23.566Z,46.43
2019-02-02T00:40:54.821Z,48.13
2019-02-02T00:43:26.447Z,47.27
2019-02-02T00:45:57.831Z,45.90
2019-02-02T00:48:29.942Z,47.90
2019-02-02T00:51:01.324Z,48.93
2019-02-02T00:53:32.605Z,49.60
2019-02-02T00:56:04.145Z,49.03
2019-02-02T00:58:35.419Z,50.97
2019-02-02T01:01:06.756Z,49.73
2019-02-02T01:03:38.035Z,43.27
2019-02-02T01:06:09.549Z,46.67
2019-02-02T01:08:41.727Z,51.07
2019-02-02T01:11:13.089Z,47.60
2019-02-02T01:13:44.514Z,53.20
2019-02-02T01:16:15.760Z,49.37
2019-02-02T01:18:47.060Z,48.80
2019-02-02T01:21:18.426Z,48.20
2019-02-02T01:23:49.826Z,47.50
2019-02-02T01:26:21.146Z,49.33
2019-02-02T01:28:52.374Z,53.40
2019-02-02T01:31:23.633Z,43.57
2019-02-02T01:33:55.093Z,44.37
2019-02-02T01:36:26.351Z,57.87
2019-02-02T01:38:57.773Z,49.37
2019-02-02T01:41:32.130Z,54.37
2019-02-02T01:44:03.534Z,50.93
2019-02-02T01:46:34.868Z,49.10
2019-02-02T01:49:06.166Z,51.10
2019-02-02T01:51:37.524Z,46.97
2019-02-02T01:54:08.819Z,48.70
2019-02-02T01:56:40.133Z,55.37
2019-02-02T01:59:11.610Z,52.73
2019-02-02T02:01:43.040Z,56.63
2019-02-02T02:04:15.559Z,54.37
2019-02-02T02:06:47.003Z,52.87
2019-02-02T02:09:18.365Z,55.93
2019-02-02T02:11:49.633Z,55.87
2019-02-02T02:14:20.995Z,53.93
2019-02-02T02:16:52.328Z,56.53
2019-02-02T02:19:24.746Z,60.97
2019-02-02T02:21:57.203Z,61.27
2019-02-02T02:24:28.540Z,49.77
2019-02-02T02:27:00.144Z,55.63
2019-02-02T02:29:31.398Z,52.17
2019-02-02T02:32:02.755Z,59.47
2019-02-02T02:34:34.001Z,57.93
2019-02-02T02:37:05.352Z,60.10
2019-02-02T02:39:36.826Z,59.03
2019-02-02T02:42:08.105Z,56.33
2019-02-02T02:44:39.479Z,58.60
2019-02-02T02:47:10.855Z,54.07
2019-02-02T02:49:42.229Z,59.80
2019-02-02T02:52:20.992Z,59.57
2019-02-02T02:54:55.562Z,59.57
2019-02-02T02:57:26.897Z,60.23
2019-02-02T02:59:59.310Z,60.97
2019-02-02T03:02:30.551Z,62.63
2019-02-02T03:05:01.941Z,63.47
2019-02-02T03:07:33.721Z,70.43
2019-02-02T03:10:06.101Z,66.00
2019-02-02T03:12:39.914Z,66.77
2019-02-02T03:15:12.216Z,60.40
2019-02-02T03:17:43.898Z,62.87
2019-02-02T03:20:15.894Z,62.37
2019-02-02T03:22:47.134Z,68.97
2019-02-02T03:25:20.385Z,69.33
2019-02-02T03:27:51.648Z,71.27
2019-02-02T03:30:23.662Z,65.50
2019-02-02T03:32:55.177Z,65.60
2019-02-02T03:35:26.762Z,70.03
2019-02-02T03:37:58.067Z,71.40
2019-02-02T03:40:29.414Z,61.80
2019-02-02T03:43:00.978Z,72.90
2019-02-02T03:45:32.350Z,69.47
2019-02-02T03:48:03.689Z,68.80
2019-02-02T03:50:35.127Z,72.37
2019-02-02T03:53:06.428Z,71.93
2019-02-02T03:55:37.842Z,71.80
2019-02-02T03:58:09.112Z,69.93
2019-02-02T04:00:40.388Z,68.10
2019-02-02T04:03:11.694Z,68.80
2019-02-02T04:05:43.248Z,71.80
2019-02-02T04:08:14.527Z,69.63
2019-02-02T04:10:45.946Z,69.17
2019-02-02T04:13:17.229Z,72.83
2019-02-02T04:15:48.755Z,79.27
2019-02-02T04:18:20.112Z,73.43
2019-02-02T04:20:51.374Z,73.47
2019-02-02T04:23:22.628Z,67.73
2019-02-02T04:25:54.072Z,66.33
2019-02-02T04:28:25.443Z,75.53
2019-02-02T04:30:56.832Z,69.03
2019-02-02T04:33:28.378Z,65.37
2019-02-02T04:36:02.679Z,75.07
2019-02-02T04:38:39.225Z,66.60
2019-02-02T04:41:15.177Z,70.50
2019-02-02T04:43:46.368Z,75.27
2019-02-02T04:46:17.925Z,70.30
2019-02-02T04:48:49.605Z,75.07
2019-02-02T04:51:20.894Z,103.40
2019-02-02T04:53:52.173Z,88.17
2019-02-02T04:56:23.475Z,76.40
2019-02-02T04:58:54.873Z,74.03
2019-02-02T05:01:26.204Z,69.97
2019-02-02T05:03:57.508Z,72.27
2019-02-02T05:06:28.858Z,69.60
2019-02-02T05:09:01.863Z,70.03
2019-02-02T05:11:41.137Z,69.67
2019-02-02T05:14:11.593Z,77.20
2019-02-02T05:16:45.197Z,78.33
2019-02-02T05:19:16.589Z,71.50
2019-02-02T05:21:47.936Z,105.30
2019-02-02T05:24:19.207Z,76.07
2019-02-02T05:26:50.683Z,70.47
2019-02-02T05:29:22.138Z,76.33
2019-02-02T05:31:53.375Z,69.60
2019-02-02T05:34:24.678Z,74.83
2019-02-02T05:36:55.972Z,117.10
2019-02-02T05:39:27.247Z,82.17
2019-02-02T05:41:58.568Z,79.53
2019-02-02T05:44:29.874Z,73.10
2019-02-02T05:47:01.322Z,78.53
2019-02-02T05:49:32.685Z,73.97
2019-02-02T05:52:03.959Z,70.60
2019-02-02T05:54:35.435Z,72.43
2019-02-02T05:57:06.693Z,70.83
2019-02-02T05:59:38.025Z,71.77
2019-02-02T06:02:09.475Z,73.53
2019-02-02T06:04:41.006Z,81.73
2019-02-02T06:07:12.505Z,73.87
2019-02-02T06:09:43.882Z,105.87
2019-02-02T06:12:17.645Z,75.30
2019-02-02T06:14:48.890Z,74.33
2019-02-02T06:17:20.264Z,79.67
2019-02-02T06:19:51.609Z,74.30
2019-02-02T06:22:22.999Z,74.33
2019-02-02T06:24:54.258Z,75.67
2019-02-02T06:27:25.710Z,73.57
2019-02-02T06:30:04.075Z,80.03
2019-02-02T06:32:30.030Z,77.17
2019-02-02T06:35:01.461Z,84.83
2019-02-02T06:37:32.960Z,85.57
2019-02-02T06:40:04.500Z,85.23
2019-02-02T06:42:37.128Z,85.87
2019-02-02T06:45:11.503Z,89.23
2019-02-02T06:47:42.907Z,89.60
2019-02-02T06:50:15.492Z,82.80
2019-02-02T06:52:46.874Z,84.87
2019-02-02T06:55:18.477Z,89.70
2019-02-02T06:57:49.861Z,83.77
2019-02-02T07:00:22.554Z,87.87
2019-02-02T07:02:53.940Z,77.83
2019-02-02T07:05:25.267Z,83.67
2019-02-02T07:07:56.615Z,91.33
2019-02-02T07:10:29.985Z,82.47
2019-02-02T07:13:01.279Z,77.87
2019-02-02T07:15:32.759Z,86.67
2019-02-02T07:18:04.096Z,81.00
2019-02-02T07:20:35.521Z,79.37
2019-02-02T07:23:07.025Z,81.20
2019-02-02T07:25:38.326Z,80.13
2019-02-02T07:28:09.672Z,81.80
2019-02-02T07:30:40.987Z,79.83
2019-02-02T07:33:12.283Z,86.67
2019-02-02T07:35:43.678Z,85.23
2019-02-02T07:38:15.006Z,81.67
2019-02-02T07:40:46.399Z,84.27
2019-02-02T07:43:17.777Z,86.63
2019-02-02T07:45:52.024Z,88.93
2019-02-02T07:48:23.359Z,84.50
2019-02-02T07:50:54.771Z,85.63
2019-02-02T07:53:26.165Z,92.10
2019-02-02T07:55:57.520Z,87.37
2019-02-02T07:58:28.875Z,87.77
2019-02-02T08:01:00.455Z,92.17
2019-02-02T08:03:31.911Z,77.37
2019-02-02T08:06:03.325Z,92.63
2019-02-02T08:08:34.745Z,90.43
2019-02-02T08:11:06.860Z,88.90
2019-02-02T08:13:38.138Z,91.47
2019-02-02T08:16:09.352Z,84.13
2019-02-02T08:18:40.673Z,96.27
2019-02-02T08:21:12.065Z,91.50
2019-02-02T08:23:43.421Z,81.13
2019-02-02T08:26:14.760Z,87.83
2019-02-02T08:28:46.119Z,92.93
2019-02-02T08:31:17.576Z,84.90
2019-02-02T08:33:48.847Z,95.37
2019-02-02T08:36:20.306Z,81.23
2019-02-02T08:38:51.619Z,96.33
2019-02-02T08:41:22.894Z,93.63
2019-02-02T08:44:02.406Z,94.00
2019-02-02T08:46:33.842Z,87.33
2019-02-02T08:49:09.747Z,88.97
2019-02-02T08:51:44.434Z,87.47
2019-02-02T08:54:15.786Z,92.73
2019-02-02T08:56:47.009Z,90.70
2019-02-02T08:59:18.427Z,87.40
2019-02-02T09:01:49.728Z,93.27
2019-02-02T09:04:21.022Z,87.00
2019-02-02T09:06:52.329Z,89.07
2019-02-02T09:09:25.610Z,96.20
2019-02-02T09:11:56.999Z,88.73
2019-02-02T09:14:28.345Z,99.43
2019-02-02T09:17:00.044Z,99.00
2019-02-02T09:19:31.612Z,91.80
2019-02-02T09:22:03.007Z,97.47
2019-02-02T09:24:35.020Z,93.90
2019-02-02T09:27:06.370Z,92.53
2019-02-02T09:29:37.851Z,96.33
2019-02-02T09:32:09.524Z,89.77
2019-02-02T09:34:40.857Z,92.67
2019-02-02T09:37:12.323Z,98.33
2019-02-02T09:39:43.770Z,95.20
2019-02-02T09:42:15.115Z,97.60
2019-02-02T09:44:46.486Z,93.57
2019-02-02T09:47:20.083Z,98.03
2019-02-02T09:49:51.001Z,103.33
2019-02-02T09:52:22.317Z,97.60
2019-02-02T09:54:53.636Z,103.70
2019-02-02T09:57:27.867Z,104.23
2019-02-02T09:59:57.981Z,99.07
2019-02-02T10:02:29.596Z,105.53
2019-02-02T10:05:01.032Z,94.23
2019-02-02T10:07:32.449Z,98.17
2019-02-02T10:10:04.372Z,104.47
2019-02-02T10:12:35.800Z,103.87
2019-02-02T10:15:07.348Z,97.87
2019-02-02T10:17:38.629Z,101.23
2019-02-02T10:20:12.675Z,101.60
2019-02-02T10:22:44.354Z,106.57
2019-02-02T10:25:18.365Z,106.17
2019-02-02T10:27:50.058Z,111.30
2019-02-02T10:30:42.084Z,99.63
2019-02-02T10:33:15.086Z,106.63
2019-02-02T10:35:46.913Z,108.73
2019-02-02T10:38:18.700Z,106.40
2019-02-02T10:40:50.519Z,101.80
2019-02-02T10:43:22.346Z,112.63
2019-02-02T10:45:53.984Z,103.20
2019-02-02T10:48:25.934Z,108.83
2019-02-02T10:50:57.917Z,104.47
2019-02-02T10:53:32.155Z,111.57
2019-02-02T10:56:04.003Z,116.43
2019-02-02T10:58:35.318Z,103.43
2019-02-02T11:01:06.681Z,107.90
2019-02-02T11:03:38.187Z,119.80
2019-02-02T11:06:09.956Z,114.43
2019-02-02T11:08:41.276Z,110.60
2019-02-02T11:11:12.776Z,107.43
2019-02-02T11:13:44.201Z,117.70
2019-02-02T11:16:15.700Z,114.87
2019-02-02T11:18:47.193Z,108.00
2019-02-02T11:21:18.560Z,118.30
2019-02-02T11:23:50.047Z,119.23
2019-02-02T11:26:21.321Z,116.90
2019-02-02T11:28:52.883Z,120.60
2019-02-02T11:31:24.376Z,114.47
2019-02-02T11:33:55.631Z,115.70
2019-02-02T11:36:26.880Z,113.40
2019-02-02T11:38:59.652Z,120.90
2019-02-02T11:41:31.694Z,125.13
2019-02-02T11:44:03.245Z,118.70
2019-02-02T11:46:35.100Z,120.00
2019-02-02T11:49:06.946Z,116.40
2019-02-02T11:51:38.426Z,121.70
2019-02-02T11:54:09.886Z,112.57
2019-02-02T11:56:41.269Z,108.57
2019-02-02T11:59:12.746Z,122.00
2019-02-02T12:01:44.337Z,112.47
2019-02-02T12:04:15.868Z,112.47
2019-02-02T12:06:49.161Z,113.50
2019-02-02T12:09:20.228Z,124.77
2019-02-02T12:11:51.625Z,119.70
2019-02-02T12:14:24.065Z,121.50
2019-02-02T12:16:55.549Z,113.10
2019-02-02T12:19:28.548Z,107.53
2019-02-02T12:21:59.975Z,114.03
2019-02-02T12:24:31.331Z,114.30
2019-02-02T12:27:02.746Z,112.50
2019-02-02T12:29:34.973Z,125.20
2019-02-02T12:32:07.580Z,124.40
2019-02-02T12:34:39.583Z,116.10
2019-02-02T12:37:11.749Z,115.07
2019-02-02T12:39:45.771Z,108.07
2019-02-02T12:42:19.525Z,106.37
2019-02-02T12:44:51.674Z,111.87
2019-02-02T12:47:23.700Z,112.33
2019-02-02T12:49:55.650Z,107.70
2019-02-02T12:52:30.142Z,102.70
2019-02-02T12:55:02.122Z,112.57
2019-02-02T12:57:33.684Z,115.33
2019-02-02T13:00:09.680Z,121.03
2019-02-02T13:02:44.004Z,122.00
2019-02-02T13:05:18.905Z,121.03
2019-02-02T13:07:52.085Z,111.43
2019-02-02T13:10:29.645Z,124.83
2019-02-02T13:13:01.402Z,115.37
2019-02-02T13:15:32.883Z,117.63
2019-02-02T13:18:05.013Z,130.97
2019-02-02T13:20:36.479Z,126.03
2019-02-02T13:23:08.194Z,121.03
2019-02-02T13:25:39.579Z,129.90
2019-02-02T13:28:11.071Z,120.90
2019-02-02T13:30:42.358Z,123.07
2019-02-02T13:33:13.651Z,120.33
2019-02-02T13:35:46.109Z,116.33
2019-02-02T13:38:17.350Z,114.87
2019-02-02T13:40:48.896Z,114.77
2019-02-02T13:43:20.576Z,112.63
2019-02-02T13:45:52.334Z,112.93
2019-02-02T13:48:23.751Z,115.73
2019-02-02T13:50:55.311Z,120.43
2019-02-02T13:53:26.628Z,119.10
2019-02-02T13:56:00.305Z,119.53
2019-02-02T13:58:31.700Z,117.50
2019-02-02T14:01:04.281Z,144.85
2019-02-02T14:03:35.911Z,120.80
2019-02-02T14:06:07.655Z,110.83
2019-02-02T14:08:39.094Z,106.93
2019-02-02T14:11:40.423Z,107.03
2019-02-02T14:14:24.806Z,93.53
2019-02-02T14:17:03.811Z,100.57
2019-02-02T14:20:09.008Z,94.60
2019-02-02T14:23:34.194Z,90.57
2019-02-02T14:26:16.349Z,88.33
2019-02-02T14:32:07.650Z,97.70
2019-02-02T14:35:32.032Z,102.30
2019-02-02T14:38:10.498Z,103.23
2019-02-02T14:40:41.850Z,103.63
2019-02-02T14:43:13.097Z,97.53
2019-02-02T14:45:44.534Z,100.57
2019-02-02T14:48:15.939Z,99.37
2019-02-02T14:50:47.220Z,101.27
2019-02-02T14:53:18.576Z,95.20
2019-02-02T14:55:50.194Z,97.40
2019-02-02T14:58:21.557Z,103.87
2019-02-02T15:00:53.989Z,94.60
2019-02-02T15:03:26.305Z,97.50
2019-02-02T15:05:57.931Z,98.93
2019-02-02T15:08:29.488Z,92.13
2019-02-02T15:11:00.809Z,100.30
2019-02-02T15:13:33.189Z,97.00
2019-02-02T15:16:04.705Z,91.63
2019-02-02T15:18:36.108Z,95.50
2019-02-02T15:21:09.723Z,109.60
2019-02-02T15:23:41.074Z,101.63
2019-02-02T15:26:12.557Z,105.17
2019-02-02T15:28:43.863Z,104.47
2019-02-02T15:31:15.314Z,112.60
2019-02-02T15:33:47.026Z,98.20
2019-02-02T15:36:18.370Z,101.93
2019-02-02T15:38:49.833Z,106.13
2019-02-02T15:41:21.242Z,101.87
2019-02-02T15:43:52.694Z,108.53
2019-02-02T15:46:25.111Z,110.63
2019-02-02T15:48:56.722Z,121.90
2019-02-02T15:53:53.398Z,109.23
2019-02-02T15:56:24.671Z,120.83
2019-02-02T15:58:56.047Z,114.70
2019-02-02T16:01:27.647Z,127.83
2019-02-02T16:03:59.124Z,120.80
2019-02-02T16:06:30.831Z,118.40
2019-02-02T16:09:03.000Z,114.90
2019-02-02T16:11:35.765Z,119.30
2019-02-02T16:14:07.267Z,110.17
2019-02-02T16:16:38.888Z,113.47
2019-02-02T16:19:10.415Z,114.23
2019-02-02T16:21:42.192Z,107.77
2019-02-02T16:24:13.825Z,128.03
2019-02-02T16:26:45.286Z,116.37
2019-02-02T16:29:16.966Z,113.23
2019-02-02T16:31:50.191Z,115.43
2019-02-02T16:34:21.821Z,106.17
2019-02-02T16:36:53.348Z,104.77
2019-02-02T16:39:24.687Z,111.70
2019-02-02T16:41:56.255Z,120.90
2019-02-02T16:44:27.657Z,113.60
2019-02-02T16:46:58.942Z,110.60
2019-02-02T16:49:30.230Z,106.07
2019-02-02T16:52:01.557Z,108.40
2019-02-02T16:54:32.937Z,95.83
2019-02-02T16:57:04.472Z,101.53
2019-02-02T16:59:36.771Z,96.90
2019-02-02T17:02:08.047Z,101.27
2019-02-02T17:04:41.483Z,103.77
2019-02-02T17:07:12.710Z,110.80
2019-02-02T17:09:44.042Z,107.07
2019-02-02T17:12:15.265Z,122.00
2019-02-02T17:14:46.919Z,122.87
2019-02-02T17:17:18.109Z,116.20
2019-02-02T17:19:49.549Z,117.97
2019-02-02T17:22:22.001Z,105.90
2019-02-02T17:24:53.340Z,113.07
2019-02-02T17:27:25.870Z,117.83
2019-02-02T17:29:57.185Z,106.73
2019-02-02T17:32:28.465Z,114.97
2019-02-02T17:34:59.767Z,114.87
2019-02-02T17:37:31.091Z,109.33
2019-02-02T17:40:02.311Z,118.13
2019-02-02T17:42:33.698Z,122.00
2019-02-02T17:45:05.214Z,112.23
2019-02-02T17:47:36.536Z,124.47
2019-02-02T17:50:10.004Z,113.30
2019-02-02T17:52:41.278Z,104.10
2019-02-02T17:55:13.026Z,121.43
2019-02-02T17:57:44.428Z,112.00
2019-02-02T18:00:48.916Z,112.73
2019-02-02T18:03:20.178Z,116.30
2019-02-02T18:05:51.519Z,102.73
2019-02-02T18:08:22.855Z,105.73
2019-02-02T18:10:54.129Z,110.30
2019-02-02T18:13:25.325Z,112.73
2019-02-02T18:15:56.635Z,103.90
2019-02-02T18:18:27.973Z,121.70
2019-02-02T18:20:59.293Z,115.50
2019-02-02T18:23:31.137Z,110.73
2019-02-02T18:26:02.396Z,123.57
2019-02-02T18:28:33.938Z,115.73
2019-02-02T18:31:05.223Z,107.37
2019-02-02T18:33:36.442Z,114.60
2019-02-02T18:36:07.735Z,120.73
2019-02-02T18:38:38.978Z,121.63
2019-02-02T18:41:10.338Z,132.43
2019-02-02T18:43:41.566Z,107.63
2019-02-02T18:46:12.996Z,109.70
2019-02-02T18:48:45.405Z,115.00
2019-02-02T18:51:16.651Z,108.87
2019-02-02T18:53:51.875Z,110.10
2019-02-02T18:56:23.106Z,117.53
2019-02-02T18:58:54.538Z,113.80
2019-02-02T19:01:25.805Z,99.50
2019-02-02T19:03:57.057Z,101.57
2019-02-02T19:06:28.510Z,108.63
2019-02-02T19:08:59.935Z,103.83
2019-02-02T19:11:32.349Z,99.87
2019-02-02T19:14:03.741Z,108.60
2019-02-02T19:16:35.220Z,94.37
2019-02-02T19:19:06.675Z,105.93
2019-02-02T19:21:38.075Z,107.80
2019-02-02T19:24:09.545Z,107.07
2019-02-02T19:26:41.008Z,108.97
2019-02-02T19:29:12.505Z,109.97
2019-02-02T19:31:45.192Z,117.30
2019-02-02T19:34:18.513Z,109.60
2019-02-02T19:36:50.273Z,125.37
2019-02-02T19:39:21.827Z,108.53
2019-02-02T19:41:53.326Z,109.97
2019-02-02T19:44:24.772Z,113.93
2019-02-02T19:46:56.360Z,110.33
2019-02-02T19:49:27.911Z,113.40
2019-02-02T19:51:59.306Z,125.67
2019-02-02T19:54:30.645Z,113.10
2019-02-02T19:57:02.129Z,121.20
2019-02-02T19:59:33.495Z,122.27
2019-02-02T20:02:04.680Z,121.77
2019-02-02T20:04:37.132Z,113.50
2019-02-02T20:07:08.423Z,121.47
2019-02-02T20:09:39.712Z,108.07
2019-02-02T20:12:11.223Z,112.47
2019-02-02T20:14:42.593Z,112.87
2019-02-02T20:17:14.677Z,118.83
2019-02-02T20:19:46.368Z,114.43
2019-02-02T20:22:17.888Z,110.43
2019-02-02T20:24:49.375Z,107.80
2019-02-02T20:27:20.895Z,118.77
2019-02-02T20:29:52.337Z,116.47
2019-02-02T20:32:23.601Z,112.87
2019-02-02T20:34:54.979Z,105.40
2019-02-02T20:37:26.339Z,123.17
2019-02-02T20:39:57.701Z,120.23
2019-02-02T20:42:29.021Z,106.83
2019-02-02T20:45:00.395Z,113.30
2019-02-02T20:47:31.646Z,105.70
2019-02-02T20:50:02.895Z,114.27
2019-02-02T20:52:46.593Z,106.43
2019-02-02T20:55:10.357Z,121.17
2019-02-02T20:57:41.552Z,113.17
2019-02-02T21:00:18.052Z,106.00
2019-02-02T21:02:53.722Z,111.03
2019-02-02T21:05:25.096Z,120.67
2019-02-02T21:07:56.351Z,116.43
2019-02-02T21:10:27.749Z,104.30
2019-02-02T21:12:59.124Z,109.43
2019-02-02T21:15:30.368Z,108.80
2019-02-02T21:18:01.654Z,109.57
2019-02-02T21:20:32.994Z,114.07
2019-02-02T21:23:04.189Z,105.80
2019-02-02T21:25:35.923Z,109.17
2019-02-02T21:28:08.524Z,108.57
2019-02-02T21:30:39.726Z,105.00
2019-02-02T21:33:11.129Z,126.27
2019-02-02T21:35:42.546Z,112.57
2019-02-02T21:38:13.891Z,104.53
2019-02-02T21:40:45.237Z,108.97
2019-02-02T21:43:16.656Z,109.80
2019-02-02T21:45:48.110Z,115.33
2019-02-02T21:48:19.352Z,114.33
2019-02-02T21:51:02.878Z,121.73
2019-02-02T21:53:48.198Z,117.13
2019-02-02T21:56:24.487Z,115.47
2019-02-02T21:58:55.761Z,120.37
2019-02-02T22:01:26.950Z,107.90
2019-02-02T22:03:58.195Z,117.57
2019-02-02T22:06:29.468Z,117.30
2019-02-02T22:09:00.722Z,111.00
2019-02-02T22:11:40.342Z,113.97
2019-02-02T22:14:21.991Z,117.63
2019-02-02T22:17:06.586Z,112.87
2019-02-02T22:19:39.055Z,123.80
2019-02-02T22:22:10.299Z,122.27
2019-02-02T22:24:50.332Z,119.47
2019-02-02T22:27:19.184Z,109.17
2019-02-02T22:29:53.156Z,111.53
2019-02-02T22:32:30.556Z,119.47
2019-02-02T22:35:06.101Z,117.70
2019-02-02T22:37:49.067Z,120.90
2019-02-02T22:40:31.957Z,116.17
2019-02-02T22:43:10.724Z,109.03
2019-02-02T22:45:54.198Z,114.67
2019-02-02T22:48:34.609Z,85.27
2019-02-02T22:51:15.576Z,114.47
2019-02-02T22:53:50.055Z,104.37
2019-02-02T22:56:32.450Z,116.37
2019-02-02T22:59:14.208Z,112.67
2019-02-02T23:01:52.838Z,115.30
2019-02-02T23:05:20.296Z,97.93
2019-02-02T23:08:48.491Z,95.63
2019-02-02T23:11:53.157Z,91.97
2019-02-02T23:14:50.519Z,93.67
2019-02-02T23:17:44.119Z,95.87
2019-02-02T23:20:43.701Z,92.67
2019-02-02T23:23:24.057Z,97.17
2019-02-02T23:26:15.151Z,109.57
2019-02-02T23:28:53.997Z,105.20
2019-02-02T23:31:42.958Z,112.77
2019-02-02T23:34:33.782Z,98.60
2019-02-02T23:37:24.751Z,110.77
2019-02-02T23:39:56.042Z,104.83
2019-02-02T23:42:28.319Z,118.67
2019-02-02T23:44:59.560Z,113.53
2019-02-02T23:50:43.617Z,95.23
2019-02-02T23:53:28.552Z,110.27
2019-02-02T23:55:59.848Z,104.57
